Time;durP1;ratioP1;P1;durP2;ratioP2;P2;SDS_P1;SDS_P2;PMS_P1;PMS_P2;Temp;Humidity;BMP_temperature;BMP_pressure;BME280_temperature;BME280_humidity;BME280_pressure;Samples;Min_cycle;Max_cycle;Signal;HPM_P1;HPM_P2
2021/03/23 00:03:26;;;;;;;13.93;7.28;;;7.40;62.60;;;;;;9996080;28;20534;-61
2021/03/23 00:08:22;;;;;;;13.75;7.38;;;7.40;62.60;;;;;;10011447;28;20218;-60
2021/03/23 00:13:13;;;;;;;16.73;7.40;;;7.40;62.60;;;;;;9996120;28;20127;-64
2021/03/23 00:18:07;;;;;;;15.23;7.55;;;7.40;62.80;;;;;;9993993;28;20040;-60
2021/03/23 00:22:58;;;;;;;11.52;6.75;;;7.40;62.80;;;;;;10010335;28;20041;-58
2021/03/23 00:27:49;;;;;;;15.88;8.25;;;7.40;63.00;;;;;;9994840;28;20033;-60
2021/03/23 00:32:40;;;;;;;15.13;8.45;;;7.40;63.00;;;;;;9993889;28;20562;-59
2021/03/23 00:37:31;;;;;;;17.33;8.77;;;7.40;63.10;;;;;;9995535;28;20535;-62
2021/03/23 00:42:22;;;;;;;17.25;8.18;;;7.40;63.10;;;;;;9995147;28;20034;-59
2021/03/23 00:47:14;;;;;;;14.25;8.02;;;7.40;63.10;;;;;;9995285;28;20021;-59
2021/03/23 00:52:05;;;;;;;11.88;8.07;;;7.40;63.30;;;;;;9994099;28;20261;-59
2021/03/23 00:56:57;;;;;;;15.00;7.93;;;7.40;63.30;;;;;;9994339;28;20046;-60
2021/03/23 01:01:47;;;;;;;17.30;7.78;;;7.40;63.20;;;;;;9987377;28;20033;-59
2021/03/23 01:06:38;;;;;;;12.60;6.55;;;7.40;63.30;;;;;;10005495;28;20021;-59
2021/03/23 01:11:29;;;;;;;11.95;5.22;;;7.50;63.40;;;;;;10007669;28;20396;-59
2021/03/23 01:16:20;;;;;;;11.68;6.30;;;7.50;63.30;;;;;;10005996;28;20683;-59
2021/03/23 01:21:10;;;;;;;14.25;6.07;;;7.40;63.60;;;;;;10005760;28;20042;-62
2021/03/23 01:26:01;;;;;;;12.95;6.85;;;7.30;63.90;;;;;;10005131;28;20040;-58
2021/03/23 01:30:52;;;;;;;15.95;6.85;;;7.30;63.20;;;;;;10004207;28;20034;-58
2021/03/23 01:35:43;;;;;;;14.18;6.78;;;7.30;63.70;;;;;;10005481;28;20041;-63
2021/03/23 01:40:34;;;;;;;12.85;6.10;;;7.40;63.70;;;;;;10002587;28;20128;-64
2021/03/23 01:45:55;;;;;;;12.57;6.20;;;7.30;63.90;;;;;;10004724;28;20033;-60
2021/03/23 01:51:15;;;;;;;13.75;7.00;;;7.40;64.10;;;;;;9994249;28;20053;-61
2021/03/23 01:56:08;;;;;;;14.55;6.30;;;7.40;64.00;;;;;;10002412;28;20055;-60
2021/03/23 02:00:59;;;;;;;15.45;5.97;;;7.40;63.80;;;;;;10005004;28;20403;-59
2021/03/23 02:05:55;;;;;;;10.10;5.40;;;7.40;64.10;;;;;;10002582;28;20033;-59
2021/03/23 02:10:47;;;;;;;11.68;4.95;;;7.40;64.10;;;;;;10003476;28;20750;-60
2021/03/23 02:15:38;;;;;;;9.88;5.25;;;7.40;64.10;;;;;;9999880;28;20109;-61
2021/03/23 02:20:28;;;;;;;14.57;6.18;;;7.40;64.10;;;;;;10003445;28;20041;-59
2021/03/23 02:25:25;;;;;;;10.27;5.25;;;7.30;64.20;;;;;;10002113;28;20073;-60
2021/03/23 02:30:26;;;;;;;12.63;4.70;;;7.30;64.30;;;;;;10000149;28;20040;-60
2021/03/23 02:35:17;;;;;;;9.57;5.22;;;7.40;64.30;;;;;;10002996;28;20049;-61
2021/03/23 02:40:08;;;;;;;13.13;4.75;;;7.30;64.30;;;;;;10003325;28;20435;-60
2021/03/23 02:45:00;;;;;;;9.30;5.38;;;7.30;64.40;;;;;;10001827;28;20033;-59
2021/03/23 02:49:51;;;;;;;17.55;8.25;;;7.30;64.50;;;;;;10002643;28;20048;-63
2021/03/23 02:54:41;;;;;;;12.10;6.10;;;7.30;64.50;;;;;;10001510;28;20080;-59
2021/03/23 02:59:32;;;;;;;11.57;5.88;;;7.20;64.80;;;;;;10002575;28;20041;-63
2021/03/23 03:04:23;;;;;;;12.90;6.07;;;7.00;65.10;;;;;;10001629;28;20124;-59
2021/03/23 03:09:14;;;;;;;15.73;5.78;;;7.10;65.00;;;;;;10001948;28;20665;-60
2021/03/23 03:14:05;;;;;;;12.85;5.55;;;7.10;65.10;;;;;;10000835;28;20040;-61
2021/03/23 03:18:56;;;;;;;9.50;4.88;;;7.10;65.20;;;;;;10001396;28;20034;-61
2021/03/23 03:23:47;;;;;;;11.85;5.43;;;7.00;65.30;;;;;;10000666;28;20136;-61
2021/03/23 03:28:38;;;;;;;10.20;5.90;;;7.00;65.40;;;;;;10001140;28;20132;-59
2021/03/23 03:33:29;;;;;;;11.95;4.75;;;7.10;65.40;;;;;;9999866;28;20053;-60
2021/03/23 03:38:22;;;;;;;11.55;4.55;;;7.00;65.30;;;;;;10002062;28;20677;-60
2021/03/23 03:43:15;;;;;;;12.30;5.25;;;7.00;65.50;;;;;;10000929;28;20033;-61
2021/03/23 03:48:07;;;;;;;12.63;5.03;;;6.90;65.60;;;;;;10000271;28;20497;-59
2021/03/23 03:52:57;;;;;;;12.32;5.55;;;6.90;65.60;;;;;;10001775;28;20029;-59
2021/03/23 03:57:48;;;;;;;12.05;5.75;;;6.90;65.60;;;;;;9998757;28;20041;-59
2021/03/23 04:02:39;;;;;;;14.88;5.70;;;6.80;65.90;;;;;;10001147;28;20037;-61
2021/03/23 04:07:31;;;;;;;10.38;5.85;;;6.80;65.90;;;;;;9999749;28;20183;-58
2021/03/23 04:12:22;;;;;;;12.73;6.18;;;6.80;66.20;;;;;;10000439;28;20037;-59
2021/03/23 04:17:13;;;;;;;13.27;6.60;;;6.80;66.20;;;;;;10000691;28;20049;-61
2021/03/23 04:22:04;;;;;;;8.90;5.75;;;6.90;66.20;;;;;;10000375;28;20131;-59
2021/03/23 04:26:55;;;;;;;15.85;7.45;;;6.90;66.30;;;;;;9999507;28;20503;-59
2021/03/23 04:31:45;;;;;;;12.73;6.78;;;6.90;66.50;;;;;;10003617;28;20041;-59
2021/03/23 04:36:36;;;;;;;11.20;6.35;;;6.90;66.50;;;;;;10006602;28;20033;-60
2021/03/23 04:41:27;;;;;;;16.27;6.20;;;7.00;66.30;;;;;;10006270;28;20760;-60
2021/03/23 04:46:24;;;;;;;14.38;6.43;;;6.90;66.70;;;;;;10006661;28;20102;-60
2021/03/23 04:51:16;;;;;;;14.10;6.38;;;6.90;66.50;;;;;;10006865;28;20049;-60
2021/03/23 04:56:17;;;;;;;10.48;5.35;;;6.90;67.00;;;;;;10005577;28;20063;-60
2021/03/23 05:01:08;;;;;;;13.85;7.50;;;6.90;66.90;;;;;;10006456;28;20056;-61
2021/03/23 05:06:05;;;;;;;12.82;5.20;;;6.80;66.90;;;;;;10006793;28;20029;-60
2021/03/23 05:10:56;;;;;;;10.32;5.97;;;6.80;67.10;;;;;;10005721;28;20030;-59
2021/03/23 05:15:46;;;;;;;14.30;6.03;;;6.80;67.30;;;;;;10006299;28;20470;-59
2021/03/23 05:20:37;;;;;;;13.60;6.05;;;6.80;67.40;;;;;;10006220;28;20049;-64
2021/03/23 05:25:28;;;;;;;15.73;5.72;;;6.80;67.10;;;;;;10003407;28;20064;-61
2021/03/23 05:30:20;;;;;;;14.80;6.55;;;6.80;67.50;;;;;;10006228;28;20044;-60
2021/03/23 05:35:12;;;;;;;10.82;5.55;;;6.80;67.40;;;;;;10005200;28;20548;-59
2021/03/23 05:40:06;;;;;;;11.63;6.18;;;6.80;67.40;;;;;;10004582;28;20041;-59
2021/03/23 05:45:07;;;;;;;11.13;5.47;;;6.80;67.30;;;;;;10006563;28;20081;-60
2021/03/23 05:50:29;;;;;;;15.15;5.75;;;6.90;67.60;;;;;;10003937;28;20538;-61
2021/03/23 05:55:33;;;;;;;12.25;6.25;;;6.90;67.50;;;;;;10020104;28;20501;-60
2021/03/23 06:00:38;;;;;;;10.63;5.93;;;6.90;67.70;;;;;;10003907;28;20037;-61
2021/03/23 06:05:45;;;;;;;10.27;5.67;;;6.90;67.60;;;;;;10002072;28;20396;-61
2021/03/23 06:10:36;;;;;;;9.80;5.45;;;6.90;67.50;;;;;;10002613;28;20036;-60
2021/03/23 06:15:30;;;;;;;10.88;5.97;;;7.00;67.30;;;;;;10004125;28;20037;-60
2021/03/23 06:20:24;;;;;;;12.48;6.57;;;7.10;67.40;;;;;;10003978;28;20655;-59
2021/03/23 06:25:36;;;;;;;12.55;6.18;;;7.20;67.40;;;;;;10001542;28;20037;-60
2021/03/23 06:30:43;;;;;;;16.35;6.50;;;7.20;67.30;;;;;;10003356;28;20542;-60
2021/03/23 06:35:43;;;;;;;14.15;5.68;;;7.20;67.70;;;;;;10002001;28;20144;-61
2021/03/23 06:40:36;;;;;;;14.90;7.05;;;7.30;67.80;;;;;;10002647;28;20132;-59
2021/03/23 06:45:27;;;;;;;14.60;6.80;;;7.40;67.50;;;;;;10001623;28;20459;-62
2021/03/23 06:50:21;;;;;;;14.00;6.55;;;7.50;67.30;;;;;;10001589;28;20813;-63
2021/03/23 06:55:23;;;;;;;14.43;7.03;;;7.50;67.40;;;;;;10001609;28;20033;-62
2021/03/23 07:00:25;;;;;;;11.52;6.60;;;7.50;67.80;;;;;;10001849;28;20418;-61
2021/03/23 07:05:34;;;;;;;12.20;7.38;;;7.50;67.90;;;;;;10002483;28;20037;-62
2021/03/23 07:10:33;;;;;;;14.10;7.57;;;7.50;67.90;;;;;;10000629;28;20026;-61
2021/03/23 07:15:27;;;;;;;16.65;7.75;;;7.60;67.70;;;;;;10000160;28;20035;-60
2021/03/23 07:20:33;;;;;;;14.43;8.13;;;7.70;67.60;;;;;;10001044;28;20053;-59
2021/03/23 07:25:40;;;;;;;20.00;8.93;;;7.80;67.80;;;;;;10000067;28;20025;-60
2021/03/23 07:30:33;;;;;;;11.15;6.22;;;7.80;67.90;;;;;;9999497;28;20056;-59
2021/03/23 07:35:37;;;;;;;15.43;7.25;;;7.80;67.70;;;;;;9998483;28;20046;-62
2021/03/23 07:40:35;;;;;;;14.00;6.65;;;7.90;67.70;;;;;;9999158;28;20049;-63
2021/03/23 07:45:42;;;;;;;16.13;7.45;;;8.00;67.60;;;;;;9997528;28;20060;-62
2021/03/23 07:50:38;;;;;;;14.77;7.60;;;8.20;67.40;;;;;;10001450;28;20377;-60
2021/03/23 07:55:29;;;;;;;14.52;7.35;;;8.30;66.90;;;;;;9998711;28;20431;-59
2021/03/23 08:00:49;;;;;;;14.23;7.90;;;8.30;67.00;;;;;;10000961;28;20041;-61
2021/03/23 08:05:55;;;;;;;17.02;8.45;;;8.40;66.70;;;;;;10001696;28;20041;-60
2021/03/23 08:11:07;;;;;;;12.27;6.68;;;8.50;66.70;;;;;;10005933;28;20406;-61
2021/03/23 08:16:05;;;;;;;16.25;6.88;;;8.60;66.40;;;;;;10007679;28;20495;-63
2021/03/23 08:21:29;;;;;;;13.63;7.13;;;8.70;66.20;;;;;;10007940;28;20400;-64
2021/03/23 08:26:47;;;;;;;15.60;7.20;;;9.00;65.60;;;;;;10004784;28;20071;-60
2021/03/23 08:32:02;;;;;;;12.65;6.93;;;8.90;65.70;;;;;;10006577;28;20651;-63
2021/03/23 08:36:56;;;;;;;16.23;7.10;;;8.90;65.40;;;;;;10007982;28;20060;-61
2021/03/23 08:41:59;;;;;;;13.02;7.53;;;9.10;65.30;;;;;;10006591;28;20288;-63
2021/03/23 08:46:51;;;;;;;16.13;7.80;;;9.40;64.00;;;;;;10007636;28;20545;-63
2021/03/23 08:51:47;;;;;;;15.95;8.70;;;9.40;64.70;;;;;;10005663;28;20091;-62
2021/03/23 08:56:48;;;;;;;17.85;8.15;;;9.40;64.70;;;;;;10006939;28;20120;-62
2021/03/23 09:01:40;;;;;;;17.88;9.43;;;9.30;64.60;;;;;;10007185;28;20530;-64
2021/03/23 09:07:00;;;;;;;16.83;9.00;;;9.50;64.20;;;;;;10006183;28;20036;-64
2021/03/23 09:12:10;;;;;;;17.17;8.77;;;9.50;63.50;;;;;;10005247;28;20072;-60
2021/03/23 09:17:02;;;;;;;20.05;9.43;;;9.20;64.10;;;;;;10005238;28;20037;-63
2021/03/23 09:21:54;;;;;;;22.83;9.73;;;9.20;64.00;;;;;;10006034;28;20519;-65
2021/03/23 09:26:48;;;;;;;21.20;10.38;;;9.10;64.00;;;;;;10001731;28;20771;-63
2021/03/23 09:31:48;;;;;;;20.25;10.50;;;9.20;63.70;;;;;;10003610;28;20030;-66
2021/03/23 09:36:50;;;;;;;21.60;9.55;;;9.10;63.80;;;;;;10003669;28;20076;-62
2021/03/23 09:42:19;;;;;;;15.00;7.47;;;9.20;63.70;;;;;;10003806;28;20430;-64
2021/03/23 09:47:48;;;;;;;17.30;6.72;;;9.50;62.60;;;;;;9991660;28;21067;-63
2021/03/23 09:52:40;;;;;;;14.45;7.53;;;9.60;61.90;;;;;;10002556;28;20040;-64
2021/03/23 09:57:32;;;;;;;13.02;6.75;;;10.00;61.90;;;;;;10002934;28;20030;-63
2021/03/23 10:02:28;;;;;;;17.98;8.32;;;10.10;61.60;;;;;;10003166;28;20749;-62
2021/03/23 10:07:28;;;;;;;15.95;6.57;;;9.90;61.80;;;;;;10002637;28;20516;-63
2021/03/23 10:12:30;;;;;;;9.32;5.55;;;9.90;61.20;;;;;;10001958;28;20049;-68
2021/03/23 10:17:26;;;;;;;9.85;5.18;;;9.80;61.60;;;;;;10001283;28;20073;-66
2021/03/23 10:22:28;;;;;;;10.38;6.10;;;10.00;61.50;;;;;;10001839;28;20088;-60
2021/03/23 10:27:28;;;;;;;10.05;5.63;;;10.40;59.80;;;;;;10001392;28;20040;-64
2021/03/23 10:32:30;;;;;;;9.63;4.20;;;10.30;60.40;;;;;;10002335;28;20037;-61
2021/03/23 10:37:22;;;;;;;8.45;4.10;;;10.30;60.10;;;;;;10002065;28;21053;-63
2021/03/23 10:42:19;;;;;;;4.28;2.35;;;10.30;60.20;;;;;;10003672;28;20410;-63
2021/03/23 10:47:37;;;;;;;8.63;3.72;;;10.30;59.80;;;;;;10000144;28;20032;-60
2021/03/23 10:52:31;;;;;;;8.05;4.05;;;10.30;58.40;;;;;;10002597;28;20489;-62
2021/03/23 10:57:25;;;;;;;9.07;4.00;;;10.10;59.10;;;;;;10000950;28;20539;-67
2021/03/23 11:02:31;;;;;;;8.15;3.90;;;10.20;58.80;;;;;;10002586;28;20980;-63
2021/03/23 11:07:25;;;;;;;7.50;3.97;;;10.00;57.90;;;;;;10002404;28;20071;-62
2021/03/23 11:12:15;;;;;;;8.80;4.50;;;10.10;57.60;;;;;;10001788;28;21040;-61
2021/03/23 11:17:13;;;;;;;10.25;4.95;;;10.40;57.70;;;;;;10002866;28;20036;-62
2021/03/23 11:22:09;;;;;;;7.88;4.35;;;10.60;57.10;;;;;;10001415;28;20068;-63
2021/03/23 11:27:00;;;;;;;6.90;3.38;;;10.80;56.70;;;;;;9999906;28;20029;-61
2021/03/23 11:31:51;;;;;;;5.80;3.33;;;10.80;56.50;;;;;;9999324;28;20025;-60
2021/03/23 11:36:42;;;;;;;10.95;5.47;;;10.80;56.30;;;;;;10001372;28;20497;-62
2021/03/23 11:41:40;;;;;;;8.25;4.20;;;10.80;55.60;;;;;;10008025;28;20098;-61
2021/03/23 11:46:41;;;;;;;6.32;3.47;;;11.00;55.90;;;;;;10014792;28;20412;-64
2021/03/23 11:51:32;;;;;;;9.05;3.97;;;11.30;55.40;;;;;;10014835;28;20037;-63
2021/03/23 11:56:23;;;;;;;10.38;4.28;;;11.60;54.80;;;;;;10013173;28;20624;-64
2021/03/23 12:01:14;;;;;;;7.47;3.65;;;11.80;55.00;;;;;;10011969;28;20037;-62
2021/03/23 12:06:07;;;;;;;5.90;3.28;;;11.90;54.90;;;;;;10014249;28;20561;-62
2021/03/23 12:11:03;;;;;;;7.43;3.78;;;11.80;54.90;;;;;;10013209;28;20541;-64
2021/03/23 12:16:00;;;;;;;6.63;3.38;;;11.50;54.80;;;;;;10012728;28;20033;-60
2021/03/23 12:20:58;;;;;;;5.15;2.95;;;11.50;54.90;;;;;;10012718;28;20482;-60
2021/03/23 12:25:49;;;;;;;7.85;3.75;;;11.70;54.40;;;;;;10011017;28;20052;-63
2021/03/23 12:30:40;;;;;;;6.13;2.80;;;11.90;54.10;;;;;;10013489;28;20033;-60
2021/03/23 12:35:30;;;;;;;5.68;2.97;;;11.90;53.30;;;;;;10011376;28;20057;-60
2021/03/23 12:40:24;;;;;;;7.45;3.05;;;11.70;52.90;;;;;;10013293;28;20049;-61
2021/03/23 12:45:34;;;;;;;5.97;3.80;;;11.60;53.30;;;;;;10012166;28;20267;-62
2021/03/23 12:50:26;;;;;;;7.45;3.28;;;11.80;53.00;;;;;;10011713;28;20065;-60
2021/03/23 12:55:26;;;;;;;6.90;4.05;;;11.90;53.00;;;;;;9988883;28;20033;-61
2021/03/23 13:00:25;;;;;;;9.55;4.93;;;11.70;52.60;;;;;;10006239;28;20025;-61
2021/03/23 13:05:16;;;;;;;11.73;4.75;;;11.80;52.80;;;;;;10005784;28;20396;-61
2021/03/23 13:10:12;;;;;;;10.15;5.32;;;11.90;52.30;;;;;;10005540;28;20029;-60
2021/03/23 13:15:04;;;;;;;6.57;3.53;;;11.50;52.60;;;;;;10005182;28;20029;-60
2021/03/23 13:19:54;;;;;;;8.50;3.42;;;11.30;52.30;;;;;;10006015;28;20052;-60
2021/03/23 13:24:50;;;;;;;7.22;4.20;;;11.20;52.30;;;;;;10002795;28;20052;-59
2021/03/23 13:29:40;;;;;;;8.25;4.28;;;11.30;52.30;;;;;;10004697;28;20705;-62
2021/03/23 13:34:31;;;;;;;9.70;4.45;;;11.40;52.30;;;;;;10004626;28;20081;-63
2021/03/23 13:39:23;;;;;;;8.05;4.50;;;11.30;52.20;;;;;;10003954;28;20146;-61
2021/03/23 13:44:53;;;;;;;7.07;4.35;;;11.30;52.10;;;;;;10004043;28;20120;-60
2021/03/23 13:49:44;;;;;;;8.82;3.95;;;11.50;51.30;;;;;;9999478;28;20048;-61
2021/03/23 13:54:35;;;;;;;9.75;5.07;;;11.40;52.00;;;;;;10004215;28;20041;-60
2021/03/23 13:59:26;;;;;;;8.23;3.97;;;11.90;51.70;;;;;;10003442;28;20128;-61
2021/03/23 14:04:18;;;;;;;6.85;4.28;;;12.10;51.40;;;;;;10001923;28;20231;-63
2021/03/23 14:09:29;;;;;;;7.22;3.75;;;11.90;51.50;;;;;;10003698;28;20033;-63
2021/03/23 14:14:20;;;;;;;7.07;4.30;;;11.90;50.80;;;;;;10003591;28;20041;-64
2021/03/23 14:19:11;;;;;;;5.85;4.43;;;12.00;51.40;;;;;;10003726;28;20087;-60
2021/03/23 14:24:02;;;;;;;8.70;3.78;;;12.30;51.40;;;;;;9999977;28;20602;-61
2021/03/23 14:28:53;;;;;;;12.60;5.32;;;12.20;51.20;;;;;;10003552;28;20248;-61
2021/03/23 14:33:45;;;;;;;6.75;3.53;;;12.00;50.90;;;;;;10003204;28;20045;-61
2021/03/23 14:38:38;;;;;;;8.23;3.83;;;11.80;51.50;;;;;;9998954;28;20038;-62
2021/03/23 14:43:30;;;;;;;7.03;3.65;;;11.90;51.40;;;;;;10000690;28;20045;-61
2021/03/23 14:48:25;;;;;;;9.43;4.78;;;11.60;51.20;;;;;;10001524;28;20091;-59
2021/03/23 14:53:24;;;;;;;5.85;2.95;;;11.70;51.20;;;;;;10001372;28;20454;-62
2021/03/23 14:58:16;;;;;;;4.60;2.42;;;11.50;50.70;;;;;;9997354;28;20439;-63
2021/03/23 15:03:12;;;;;;;4.68;2.70;;;11.50;51.00;;;;;;10001528;28;20031;-61
2021/03/23 15:08:07;;;;;;;;;;;11.50;51.10;;;;;;10002915;28;20166;-62
2021/03/23 15:12:59;;;;;;;5.63;3.15;;;11.60;49.70;;;;;;10002568;28;19917;-62
2021/03/23 15:17:51;;;;;;;5.55;3.50;;;11.60;51.00;;;;;;9999991;28;20120;-60
2021/03/23 15:22:42;;;;;;;6.07;3.35;;;11.60;50.70;;;;;;10001108;28;20567;-61
2021/03/23 15:27:34;;;;;;;6.82;3.08;;;11.60;50.90;;;;;;9999700;28;20319;-59
2021/03/23 15:32:24;;;;;;;8.70;3.92;;;11.90;50.40;;;;;;10001007;28;20064;-61
2021/03/23 15:37:25;;;;;;;6.35;3.08;;;12.20;49.90;;;;;;9999850;28;20052;-62
2021/03/23 15:42:19;;;;;;;3.70;2.88;;;13.00;49.20;;;;;;9999909;28;20061;-61
2021/03/23 15:47:10;;;;;;;7.15;3.20;;;13.40;48.60;;;;;;10001011;28;20444;-60
2021/03/23 15:52:00;;;;;;;5.80;3.33;;;13.10;48.90;;;;;;9997149;28;20040;-59
2021/03/23 15:56:51;;;;;;;7.95;3.40;;;13.50;47.90;;;;;;10000457;28;20029;-60
2021/03/23 16:01:42;;;;;;;9.35;3.97;;;13.30;48.70;;;;;;10000046;28;20168;-60
2021/03/23 16:06:34;;;;;;;6.20;3.47;;;13.00;48.80;;;;;;9999570;28;20034;-59
2021/03/23 16:11:27;;;;;;;7.88;4.10;;;12.80;49.20;;;;;;9999969;28;20331;-65
2021/03/23 16:16:18;;;;;;;6.53;3.58;;;12.90;48.90;;;;;;9999373;28;20549;-58
2021/03/23 16:21:19;;;;;;;6.50;3.42;;;12.60;49.20;;;;;;10000953;28;20080;-58
2021/03/23 16:26:18;;;;;;;6.00;3.13;;;12.50;48.90;;;;;;9997904;28;20522;-55
2021/03/23 16:31:18;;;;;;;6.00;3.47;;;12.80;48.90;;;;;;10006904;28;20026;-58
2021/03/23 16:36:10;;;;;;;5.97;3.03;;;13.00;47.80;;;;;;10008640;28;20057;-61
2021/03/23 16:41:01;;;;;;;7.22;3.20;;;12.50;48.70;;;;;;10007338;28;20041;-60
2021/03/23 16:45:52;;;;;;;7.70;3.47;;;12.30;49.20;;;;;;10006240;28;20048;-59
2021/03/23 16:50:46;;;;;;;7.35;3.88;;;12.60;48.60;;;;;;10005514;28;20037;-59
2021/03/23 16:55:37;;;;;;;5.00;3.17;;;12.90;47.70;;;;;;10006040;28;20030;-60
2021/03/23 17:00:31;;;;;;;7.63;3.08;;;13.50;46.90;;;;;;10006246;28;20565;-62
2021/03/23 17:05:22;;;;;;;8.60;3.38;;;12.80;47.70;;;;;;10002372;28;20037;-60
2021/03/23 17:10:15;;;;;;;7.22;3.25;;;11.80;49.50;;;;;;10005518;28;20270;-58
2021/03/23 17:15:08;;;;;;;5.05;3.05;;;11.20;50.50;;;;;;10004208;28;20829;-61
2021/03/23 17:19:59;;;;;;;7.55;3.80;;;10.80;51.00;;;;;;10004023;28;20048;-65
2021/03/23 17:24:50;;;;;;;8.48;3.92;;;10.50;51.60;;;;;;10003134;28;20335;-61
2021/03/23 17:29:41;;;;;;;8.07;3.55;;;10.30;51.80;;;;;;10004145;28;20036;-59
2021/03/23 17:34:32;;;;;;;5.85;2.92;;;10.20;52.00;;;;;;10003926;28;20140;-62
2021/03/23 17:39:22;;;;;;;10.55;3.95;;;10.10;51.90;;;;;;10004655;28;20151;-63
2021/03/23 17:44:13;;;;;;;13.25;6.15;;;10.10;52.00;;;;;;10003725;28;20068;-61
2021/03/23 17:49:04;;;;;;;12.30;7.43;;;10.00;51.90;;;;;;10005408;28;20445;-60
2021/03/23 17:53:55;;;;;;;11.35;5.20;;;9.90;52.20;;;;;;10003929;28;20068;-61
2021/03/23 17:58:47;;;;;;;13.95;6.40;;;9.80;52.30;;;;;;10002659;28;20132;-62
2021/03/23 18:03:40;;;;;;;7.82;5.40;;;9.80;52.60;;;;;;10003358;28;20361;-60
2021/03/23 18:08:31;;;;;;;13.13;5.68;;;9.70;52.50;;;;;;10002487;28;20037;-68
2021/03/23 18:13:25;;;;;;;9.95;4.85;;;9.70;52.40;;;;;;10006488;28;20033;-66
2021/03/23 18:18:16;;;;;;;6.68;4.13;;;9.70;52.30;;;;;;10006256;28;20045;-69
2021/03/23 18:23:07;;;;;;;7.90;4.45;;;9.60;52.50;;;;;;10002832;28;21036;-72
2021/03/23 18:27:59;;;;;;;9.60;5.50;;;9.50;52.70;;;;;;10003865;28;20101;-71
2021/03/23 18:32:50;;;;;;;8.65;5.05;;;9.40;52.90;;;;;;10001137;28;20050;-70
2021/03/23 18:37:40;;;;;;;13.63;6.63;;;9.30;53.10;;;;;;10002594;28;20090;-71
2021/03/23 18:42:32;;;;;;;10.50;6.30;;;9.30;53.20;;;;;;10002356;28;20223;-68
2021/03/23 18:47:22;;;;;;;12.60;6.75;;;9.30;53.50;;;;;;10001560;28;20522;-68
2021/03/23 18:52:13;;;;;;;17.17;7.97;;;9.20;53.70;;;;;;10001374;28;20040;-68
2021/03/23 18:57:05;;;;;;;16.55;8.73;;;9.20;53.70;;;;;;10001125;28;20867;-69
2021/03/23 19:01:56;;;;;;;11.25;5.57;;;9.20;53.80;;;;;;10018076;28;20041;-67
2021/03/23 19:06:47;;;;;;;11.40;5.88;;;9.10;54.10;;;;;;10003342;28;20531;-72
2021/03/23 19:11:37;;;;;;;9.30;4.22;;;9.00;54.40;;;;;;10001159;28;20330;-71
2021/03/23 19:16:31;;;;;;;13.18;5.97;;;9.00;54.40;;;;;;10000783;28;20068;-67
2021/03/23 19:21:21;;;;;;;8.00;4.53;;;9.00;54.60;;;;;;10000369;28;21625;-68
2021/03/23 19:26:12;;;;;;;9.10;4.13;;;8.90;54.70;;;;;;10000700;28;20037;-72
2021/03/23 19:31:06;;;;;;;13.77;5.53;;;8.90;54.90;;;;;;10001175;28;20782;-68
2021/03/23 19:35:57;;;;;;;8.55;4.18;;;8.90;55.00;;;;;;9999141;28;20119;-68
2021/03/23 19:40:48;;;;;;;10.20;4.55;;;8.90;55.10;;;;;;10001160;28;20064;-66
2021/03/23 19:45:40;;;;;;;12.13;4.95;;;8.80;55.10;;;;;;9997760;28;20030;-71
2021/03/23 19:50:34;;;;;;;13.20;6.22;;;8.80;55.40;;;;;;9999103;28;20071;-68
2021/03/23 19:55:31;;;;;;;9.30;4.68;;;8.70;55.60;;;;;;10004852;28;20274;-68
2021/03/23 20:00:26;;;;;;;13.38;6.43;;;8.70;55.70;;;;;;10002588;28;20044;-69
2021/03/23 20:05:19;;;;;;;9.93;5.78;;;8.70;55.80;;;;;;10009585;28;20064;-69
2021/03/23 20:10:10;;;;;;;13.05;7.93;;;8.60;56.00;;;;;;10006969;28;20042;-71
2021/03/23 20:15:02;;;;;;;11.23;6.75;;;8.60;56.10;;;;;;10008419;28;20442;-69
2021/03/23 20:19:55;;;;;;;13.35;5.72;;;8.60;56.30;;;;;;10008762;28;20087;-70
2021/03/23 20:24:46;;;;;;;10.73;4.47;;;8.50;56.40;;;;;;10006413;28;20025;-70
2021/03/23 20:29:37;;;;;;;12.75;6.35;;;8.60;56.50;;;;;;10005937;28;20045;-69
2021/03/23 20:34:28;;;;;;;10.68;5.72;;;8.50;56.70;;;;;;10007855;28;20065;-70
2021/03/23 20:39:18;;;;;;;9.25;5.22;;;8.40;56.70;;;;;;10006737;28;20042;-69
2021/03/23 20:44:10;;;;;;;10.10;4.75;;;8.40;56.90;;;;;;10007460;28;20037;-71
2021/03/23 20:49:05;;;;;;;12.60;6.60;;;8.40;57.10;;;;;;10009178;28;20419;-74
2021/03/23 20:53:56;;;;;;;14.33;7.20;;;8.40;57.30;;;;;;9995612;28;20037;-72
2021/03/23 20:58:47;;;;;;;15.60;8.80;;;8.30;57.30;;;;;;10003360;28;20147;-71
2021/03/23 21:03:37;;;;;;;12.88;6.90;;;8.30;57.60;;;;;;10007171;28;20033;-72
2021/03/23 21:08:31;;;;;;;14.00;7.10;;;8.30;57.70;;;;;;10007067;28;20065;-76
2021/03/23 21:13:29;;;;;;;14.00;6.82;;;8.10;58.00;;;;;;10003865;28;20030;-70
2021/03/23 21:18:20;;;;;;;11.00;5.53;;;8.10;58.10;;;;;;10004877;28;20069;-71
2021/03/23 21:23:18;;;;;;;13.32;6.68;;;8.10;58.30;;;;;;10000379;28;20056;-73
2021/03/23 21:28:12;;;;;;;11.82;5.35;;;8.10;58.60;;;;;;10001911;28;20044;-72
2021/03/23 21:33:04;;;;;;;16.10;6.00;;;8.00;58.70;;;;;;10004551;28;20063;-74
2021/03/23 21:37:55;;;;;;;15.02;6.97;;;8.00;58.90;;;;;;10007326;28;20366;-73
2021/03/23 21:42:46;;;;;;;16.27;6.07;;;7.90;59.30;;;;;;10004333;28;20026;-72
2021/03/23 21:47:36;;;;;;;13.13;7.13;;;7.90;59.40;;;;;;10005457;28;20021;-72
2021/03/23 21:52:28;;;;;;;12.80;6.80;;;7.90;59.50;;;;;;10005491;28;20496;-67
2021/03/23 21:57:18;;;;;;;14.57;6.88;;;7.80;59.70;;;;;;10006195;28;20132;-72
2021/03/23 22:02:09;;;;;;;14.57;7.10;;;7.60;60.00;;;;;;10003302;28;20043;-70
2021/03/23 22:07:00;;;;;;;20.45;9.95;;;7.60;60.30;;;;;;10001204;28;20034;-70
2021/03/23 22:11:51;;;;;;;16.25;8.32;;;7.50;60.60;;;;;;10004588;28;20094;-72
2021/03/23 22:16:42;;;;;;;15.98;8.70;;;7.30;61.10;;;;;;10002730;28;20130;-72
2021/03/23 22:21:33;;;;;;;18.00;8.65;;;7.10;61.50;;;;;;10004354;28;20050;-72
2021/03/23 22:26:23;;;;;;;16.48;8.00;;;7.20;61.60;;;;;;10000732;28;20049;-70
2021/03/23 22:31:14;;;;;;;14.30;8.30;;;7.20;61.70;;;;;;10002460;28;20125;-75
2021/03/23 22:36:06;;;;;;;18.00;8.38;;;7.30;61.70;;;;;;9919033;28;20582;-72
2021/03/23 22:40:59;;;;;;;13.48;8.50;;;7.20;61.80;;;;;;9967525;28;20138;-71
2021/03/23 22:45:50;;;;;;;14.75;8.13;;;7.20;62.10;;;;;;9967679;28;20415;-72
2021/03/23 22:50:44;;;;;;;15.77;8.60;;;7.10;62.10;;;;;;9965450;28;20503;-74
2021/03/23 22:55:35;;;;;;;21.33;8.75;;;7.10;62.20;;;;;;9969827;28;20119;-71
2021/03/23 23:00:26;;;;;;;16.38;9.95;;;7.10;63.00;;;;;;9968630;28;20486;-72
2021/03/23 23:05:17;;;;;;;16.58;9.75;;;7.00;62.70;;;;;;9966273;28;21082;-71
2021/03/23 23:10:20;;;;;;;20.13;8.88;;;7.00;62.60;;;;;;9980207;28;20490;-74
2021/03/23 23:15:44;;;;;;;20.20;10.10;;;7.00;62.90;;;;;;9968509;28;20030;-71
2021/03/23 23:20:42;;;;;;;15.23;8.25;;;6.90;63.00;;;;;;9968532;28;20053;-72
2021/03/23 23:25:33;;;;;;;18.42;9.70;;;6.90;63.30;;;;;;9965750;28;20052;-74
2021/03/23 23:30:30;;;;;;;19.67;10.18;;;6.80;63.40;;;;;;9967576;28;20326;-73
2021/03/23 23:35:23;;;;;;;23.90;10.05;;;6.80;63.60;;;;;;9981822;28;20156;-73
2021/03/23 23:40:15;;;;;;;20.30;9.55;;;6.80;63.70;;;;;;9966795;28;20037;-70
2021/03/23 23:45:20;;;;;;;19.08;8.88;;;6.70;63.90;;;;;;9966584;28;20152;-73
2021/03/23 23:50:15;;;;;;;15.55;8.38;;;6.80;64.10;;;;;;9968486;28;20013;-72
2021/03/23 23:55:07;;;;;;;18.48;8.18;;;6.70;64.10;;;;;;9966876;28;20580;-73
